Terminal Aerodrome Forecast
Issued by NWS Buffalo, NY

Home | Current Version | Previous Version | Text Only | Print | Product List | Glossary On
Versions: 1 2 3 4 5 6 7 8 9 10 11 12 13 14 15 16 17 18 19 20 21 22 23 24 25 26 27
000
FTUS41 KBUF 270500
TAFART
TAF
KART 270527Z 2706/2806 VRB03KT P6SM VCSH OVC040
     FM271100 34005KT P6SM VCSH OVC035
     FM271600 32007KT P6SM VCSH OVC035
      TEMPO 2717/2721 -SHRA BKN025
     FM280000 33006KT P6SM OVC035
     FM280500 36004KT P6SM BKN250=

USA.gov is the U.S. government's official web portal to all federal, state and local government web resources and services.